sensor_id;sensor_type;location;lat;lon;timestamp;temperature;humidity
17968;DHT22;9109;48.050;11.696;2023-04-09T03:47:07;3.90;99.90
17968;DHT22;9109;48.050;11.696;2023-04-09T03:50:09;3.70;99.90
17968;DHT22;9109;48.050;11.696;2023-04-09T03:53:11;3.80;99.90
17968;DHT22;9109;48.050;11.696;2023-04-09T03:56:13;3.90;99.90
17968;DHT22;9109;48.050;11.696;2023-04-09T03:59:15;4.00;99.90
17968;DHT22;9109;48.050;11.696;2023-04-09T04:02:18;4.00;99.90
17968;DHT22;9109;48.050;11.696;2023-04-09T04:05:22;4.00;99.90
17968;DHT22;9109;48.050;11.696;2023-04-09T04:08:24;3.90;99.90
17968;DHT22;9109;48.050;11.696;2023-04-09T04:11:26;4.00;99.90
17968;DHT22;9109;48.050;11.696;2023-04-09T04:14:28;4.00;99.90
17968;DHT22;9109;48.050;11.696;2023-04-09T04:17:32;4.10;99.90
17968;DHT22;9109;48.050;11.696;2023-04-09T04:20:34;4.20;99.90
17968;DHT22;9109;48.050;11.696;2023-04-09T04:23:36;4.20;99.90
17968;DHT22;9109;48.050;11.696;2023-04-09T04:26:39;4.20;99.90
17968;DHT22;9109;48.050;11.696;2023-04-09T04:29:40;4.10;99.90
17968;DHT22;9109;48.050;11.696;2023-04-09T04:32:44;4.10;99.90
17968;DHT22;9109;48.050;11.696;2023-04-09T04:35:45;4.10;99.90
17968;DHT22;9109;48.050;11.696;2023-04-09T04:38:48;4.10;99.90
17968;DHT22;9109;48.050;11.696;2023-04-09T04:41:49;4.10;99.90
17968;DHT22;9109;48.050;11.696;2023-04-09T04:44:51;4.10;99.90
17968;DHT22;9109;48.050;11.696;2023-04-09T04:47:57;4.10;99.90
17968;DHT22;9109;48.050;11.696;2023-04-09T04:51:00;4.10;99.90
17968;DHT22;9109;48.050;11.696;2023-04-09T04:54:02;4.00;99.90
17968;DHT22;9109;48.050;11.696;2023-04-09T04:57:04;4.00;99.90
17968;DHT22;9109;48.050;11.696;2023-04-09T05:00:07;4.00;99.90
17968;DHT22;9109;48.050;11.696;2023-04-09T05:03:11;4.00;99.90
17968;DHT22;9109;48.050;11.696;2023-04-09T05:06:13;3.90;99.90
17968;DHT22;9109;48.050;11.696;2023-04-09T05:09:15;3.50;99.90
17968;DHT22;9109;48.050;11.696;2023-04-09T05:12:17;3.50;99.90
17968;DHT22;9109;48.050;11.696;2023-04-09T05:15:19;3.70;99.90
17968;DHT22;9109;48.050;11.696;2023-04-09T05:18:22;3.90;99.90
17968;DHT22;9109;48.050;11.696;2023-04-09T05:21:24;4.00;99.90
17968;DHT22;9109;48.050;11.696;2023-04-09T05:24:27;4.20;99.90
17968;DHT22;9109;48.050;11.696;2023-04-09T05:27:29;4.20;99.90
17968;DHT22;9109;48.050;11.696;2023-04-09T05:30:31;4.20;99.90
17968;DHT22;9109;48.050;11.696;2023-04-09T05:33:34;4.30;99.90
17968;DHT22;9109;48.050;11.696;2023-04-09T05:36:37;4.30;99.90
17968;DHT22;9109;48.050;11.696;2023-04-09T05:39:39;4.00;99.90
17968;DHT22;9109;48.050;11.696;2023-04-09T05:42:41;3.70;99.90
17968;DHT22;9109;48.050;11.696;2023-04-09T05:45:43;3.90;99.90
17968;DHT22;9109;48.050;11.696;2023-04-09T05:48:46;4.00;99.90
17968;DHT22;9109;48.050;11.696;2023-04-09T05:51:48;4.20;99.90
17968;DHT22;9109;48.050;11.696;2023-04-09T05:54:50;4.30;99.90
17968;DHT22;9109;48.050;11.696;2023-04-09T05:57:52;4.30;99.90
17968;DHT22;9109;48.050;11.696;2023-04-09T06:00:54;4.20;99.90
17968;DHT22;9109;48.050;11.696;2023-04-09T06:03:57;4.20;99.90
17968;DHT22;9109;48.050;11.696;2023-04-09T06:06:59;4.30;99.90
17968;DHT22;9109;48.050;11.696;2023-04-09T06:10:01;4.30;99.90
17968;DHT22;9109;48.050;11.696;2023-04-09T06:13:03;4.30;99.90
17968;DHT22;9109;48.050;11.696;2023-04-09T06:16:09;4.50;99.90
17968;DHT22;9109;48.050;11.696;2023-04-09T06:19:16;4.60;99.90
17968;DHT22;9109;48.050;11.696;2023-04-09T06:22:18;4.70;99.90
17968;DHT22;9109;48.050;11.696;2023-04-09T06:25:20;4.80;99.90
17968;DHT22;9109;48.050;11.696;2023-04-09T06:28:22;4.80;99.90
17968;DHT22;9109;48.050;11.696;2023-04-09T06:31:24;4.80;99.90
17968;DHT22;9109;48.050;11.696;2023-04-09T06:34:28;4.90;99.90
17968;DHT22;9109;48.050;11.696;2023-04-09T06:37:30;5.00;99.90
17968;DHT22;9109;48.050;11.696;2023-04-09T06:40:32;5.10;99.90
17968;DHT22;9109;48.050;11.696;2023-04-09T06:43:34;5.20;99.90
17968;DHT22;9109;48.050;11.696;2023-04-09T06:46:36;5.30;99.90
17968;DHT22;9109;48.050;11.696;2023-04-09T06:49:40;5.40;99.90
17968;DHT22;9109;48.050;11.696;2023-04-09T06:52:42;5.40;99.90
17968;DHT22;9109;48.050;11.696;2023-04-09T06:55:43;5.40;99.90
17968;DHT22;9109;48.050;11.696;2023-04-09T06:58:45;5.40;99.90
17968;DHT22;9109;48.050;11.696;2023-04-09T07:01:47;5.50;99.90
17968;DHT22;9109;48.050;11.696;2023-04-09T07:04:51;5.60;99.90
17968;DHT22;9109;48.050;11.696;2023-04-09T07:07:53;5.70;99.90
17968;DHT22;9109;48.050;11.696;2023-04-09T07:10:55;5.70;99.90
17968;DHT22;9109;48.050;11.696;2023-04-09T07:13:57;5.90;99.90
17968;DHT22;9109;48.050;11.696;2023-04-09T07:16:59;5.90;99.90
17968;DHT22;9109;48.050;11.696;2023-04-09T07:20:03;5.90;99.90
17968;DHT22;9109;48.050;11.696;2023-04-09T07:23:08;5.90;99.90
17968;DHT22;9109;48.050;11.696;2023-04-09T07:26:10;6.00;99.90
17968;DHT22;9109;48.050;11.696;2023-04-09T07:29:12;6.10;99.90
17968;DHT22;9109;48.050;11.696;2023-04-09T07:32:14;6.20;99.90
17968;DHT22;9109;48.050;11.696;2023-04-09T07:35:18;6.30;99.90
17968;DHT22;9109;48.050;11.696;2023-04-09T07:38:19;6.30;99.90
17968;DHT22;9109;48.050;11.696;2023-04-09T07:41:21;6.40;99.90
17968;DHT22;9109;48.050;11.696;2023-04-09T07:44:23;6.50;99.90
17968;DHT22;9109;48.050;11.696;2023-04-09T07:47:25;6.40;99.90
17968;DHT22;9109;48.050;11.696;2023-04-09T07:50:29;6.50;99.90
17968;DHT22;9109;48.050;11.696;2023-04-09T07:53:31;6.60;99.90
17968;DHT22;9109;48.050;11.696;2023-04-09T07:56:33;6.80;99.90
17968;DHT22;9109;48.050;11.696;2023-04-09T07:59:35;6.90;99.90
17968;DHT22;9109;48.050;11.696;2023-04-09T08:02:37;6.90;99.90
17968;DHT22;9109;48.050;11.696;2023-04-09T08:05:40;6.90;99.90
17968;DHT22;9109;48.050;11.696;2023-04-09T08:08:42;6.90;99.90
17968;DHT22;9109;48.050;11.696;2023-04-09T08:11:44;7.00;99.90
17968;DHT22;9109;48.050;11.696;2023-04-09T08:14:46;7.00;99.90
17968;DHT22;9109;48.050;11.696;2023-04-09T08:17:48;7.10;99.90
17968;DHT22;9109;48.050;11.696;2023-04-09T08:20:52;6.80;99.90
17968;DHT22;9109;48.050;11.696;2023-04-09T08:23:54;6.70;99.90
17968;DHT22;9109;48.050;11.696;2023-04-09T08:27:00;6.80;99.90
17968;DHT22;9109;48.050;11.696;2023-04-09T08:30:03;7.10;99.90
17968;DHT22;9109;48.050;11.696;2023-04-09T08:33:04;7.30;99.90
17968;DHT22;9109;48.050;11.696;2023-04-09T08:36:08;7.50;99.90
17968;DHT22;9109;48.050;11.696;2023-04-09T08:39:11;7.60;99.90
17968;DHT22;9109;48.050;11.696;2023-04-09T08:42:13;7.50;99.90
17968;DHT22;9109;48.050;11.696;2023-04-09T08:45:15;7.60;99.90
17968;DHT22;9109;48.050;11.696;2023-04-09T08:48:17;7.70;99.90
17968;DHT22;9109;48.050;11.696;2023-04-09T08:51:22;7.80;99.90
17968;DHT22;9109;48.050;11.696;2023-04-09T08:54:25;7.90;99.90
17968;DHT22;9109;48.050;11.696;2023-04-09T08:57:27;7.40;99.90
17968;DHT22;9109;48.050;11.696;2023-04-09T09:00:29;7.30;99.90
17968;DHT22;9109;48.050;11.696;2023-04-09T09:03:30;7.50;99.90
17968;DHT22;9109;48.050;11.696;2023-04-09T09:06:35;7.70;99.90
17968;DHT22;9109;48.050;11.696;2023-04-09T09:09:50;7.80;99.90
17968;DHT22;9109;48.050;11.696;2023-04-09T09:12:52;8.00;99.90
17968;DHT22;9109;48.050;11.696;2023-04-09T09:16:11;8.10;99.90
17968;DHT22;9109;48.050;11.696;2023-04-09T09:19:28;8.00;99.90
17968;DHT22;9109;48.050;11.696;2023-04-09T09:22:48;8.00;99.90
17968;DHT22;9109;48.050;11.696;2023-04-09T09:25:50;7.90;99.90
17968;DHT22;9109;48.050;11.696;2023-04-09T09:28:52;7.80;99.90
17968;DHT22;9109;48.050;11.696;2023-04-09T09:31:55;7.90;99.90
17968;DHT22;9109;48.050;11.696;2023-04-09T09:34:59;8.20;99.90
17968;DHT22;9109;48.050;11.696;2023-04-09T09:38:03;8.30;99.90
17968;DHT22;9109;48.050;11.696;2023-04-09T09:41:15;8.30;99.90
17968;DHT22;9109;48.050;11.696;2023-04-09T09:44:31;8.20;99.90
17968;DHT22;9109;48.050;11.696;2023-04-09T09:47:33;8.20;99.90
17968;DHT22;9109;48.050;11.696;2023-04-09T09:50:37;8.30;99.90
17968;DHT22;9109;48.050;11.696;2023-04-09T09:53:44;8.40;99.90
17968;DHT22;9109;48.050;11.696;2023-04-09T09:56:47;8.60;99.90
17968;DHT22;9109;48.050;11.696;2023-04-09T09:59:54;8.90;99.90
17968;DHT22;9109;48.050;11.696;2023-04-09T10:02:58;9.10;99.90
17968;DHT22;9109;48.050;11.696;2023-04-09T10:06:02;8.90;98.70
17968;DHT22;9109;48.050;11.696;2023-04-09T10:09:06;8.90;98.40
17968;DHT22;9109;48.050;11.696;2023-04-09T10:12:08;8.70;99.40
17968;DHT22;9109;48.050;11.696;2023-04-09T10:15:11;8.90;99.60
17968;DHT22;9109;48.050;11.696;2023-04-09T10:18:14;8.80;97.70
17968;DHT22;9109;48.050;11.696;2023-04-09T10:21:27;8.60;99.00
17968;DHT22;9109;48.050;11.696;2023-04-09T10:24:34;8.80;99.90
17968;DHT22;9109;48.050;11.696;2023-04-09T10:27:36;8.90;99.70
17968;DHT22;9109;48.050;11.696;2023-04-09T10:30:38;9.10;98.60
17968;DHT22;9109;48.050;11.696;2023-04-09T10:33:42;9.10;99.70
17968;DHT22;9109;48.050;11.696;2023-04-09T10:36:49;8.90;99.90
17968;DHT22;9109;48.050;11.696;2023-04-09T10:39:54;9.20;99.90
17968;DHT22;9109;48.050;11.696;2023-04-09T10:42:57;9.40;99.90
17968;DHT22;9109;48.050;11.696;2023-04-09T10:46:00;9.60;99.90
17968;DHT22;9109;48.050;11.696;2023-04-09T10:49:14;9.50;98.00
17968;DHT22;9109;48.050;11.696;2023-04-09T10:52:16;9.20;98.80
17968;DHT22;9109;48.050;11.696;2023-04-09T10:55:33;9.30;97.60
17968;DHT22;9109;48.050;11.696;2023-04-09T10:58:36;9.20;97.90
17968;DHT22;9109;48.050;11.696;2023-04-09T11:01:38;9.20;98.10
17968;DHT22;9109;48.050;11.696;2023-04-09T11:04:46;9.10;96.60
17968;DHT22;9109;48.050;11.696;2023-04-09T11:07:56;9.00;95.90
17968;DHT22;9109;48.050;11.696;2023-04-09T11:11:01;9.00;97.30
17968;DHT22;9109;48.050;11.696;2023-04-09T11:14:03;9.00;98.30
17968;DHT22;9109;48.050;11.696;2023-04-09T11:17:05;9.20;98.70
17968;DHT22;9109;48.050;11.696;2023-04-09T11:20:08;8.90;97.50
17968;DHT22;9109;48.050;11.696;2023-04-09T11:23:11;8.60;98.10
17968;DHT22;9109;48.050;11.696;2023-04-09T11:26:15;8.40;98.30
17968;DHT22;9109;48.050;11.696;2023-04-09T11:29:17;8.50;99.10
17968;DHT22;9109;48.050;11.696;2023-04-09T11:32:19;8.50;98.80
17968;DHT22;9109;48.050;11.696;2023-04-09T11:35:21;8.40;99.30
17968;DHT22;9109;48.050;11.696;2023-04-09T11:38:23;8.60;99.90
17968;DHT22;9109;48.050;11.696;2023-04-09T11:41:34;8.60;99.90
17968;DHT22;9109;48.050;11.696;2023-04-09T11:44:35;8.50;99.90
17968;DHT22;9109;48.050;11.696;2023-04-09T11:47:39;8.70;99.90
17968;DHT22;9109;48.050;11.696;2023-04-09T11:50:42;8.70;99.90
17968;DHT22;9109;48.050;11.696;2023-04-09T11:53:44;8.70;99.90
17968;DHT22;9109;48.050;11.696;2023-04-09T11:56:48;8.80;99.90
17968;DHT22;9109;48.050;11.696;2023-04-09T11:59:55;8.70;99.40
17968;DHT22;9109;48.050;11.696;2023-04-09T12:02:59;8.60;99.80
17968;DHT22;9109;48.050;11.696;2023-04-09T12:06:04;8.90;99.90
17968;DHT22;9109;48.050;11.696;2023-04-09T12:09:07;8.70;99.60
17968;DHT22;9109;48.050;11.696;2023-04-09T12:12:18;8.60;98.90
17968;DHT22;9109;48.050;11.696;2023-04-09T12:15:22;8.70;99.80
17968;DHT22;9109;48.050;11.696;2023-04-09T12:18:24;8.70;99.60
17968;DHT22;9109;48.050;11.696;2023-04-09T12:21:44;8.70;99.90
17968;DHT22;9109;48.050;11.696;2023-04-09T12:24:46;8.80;99.60
17968;DHT22;9109;48.050;11.696;2023-04-09T12:27:49;8.70;99.10
17968;DHT22;9109;48.050;11.696;2023-04-09T12:30:51;9.00;99.30
17968;DHT22;9109;48.050;11.696;2023-04-09T12:33:54;9.00;98.60
17968;DHT22;9109;48.050;11.696;2023-04-09T12:36:56;9.00;98.60
17968;DHT22;9109;48.050;11.696;2023-04-09T12:39:58;9.10;99.20
17968;DHT22;9109;48.050;11.696;2023-04-09T12:43:01;9.20;98.10
17968;DHT22;9109;48.050;11.696;2023-04-09T12:46:03;9.20;97.50
17968;DHT22;9109;48.050;11.696;2023-04-09T12:49:05;9.30;97.50
17968;DHT22;9109;48.050;11.696;2023-04-09T12:52:07;9.20;97.70
17968;DHT22;9109;48.050;11.696;2023-04-09T12:55:10;9.10;96.90
17968;DHT22;9109;48.050;11.696;2023-04-09T12:58:13;8.90;96.50
17968;DHT22;9109;48.050;11.696;2023-04-09T13:01:15;8.90;96.90
17968;DHT22;9109;48.050;11.696;2023-04-09T13:04:17;8.90;96.50
17968;DHT22;9109;48.050;11.696;2023-04-09T13:07:19;8.90;96.40
17968;DHT22;9109;48.050;11.696;2023-04-09T13:10:22;9.00;96.00
17968;DHT22;9109;48.050;11.696;2023-04-09T13:13:25;9.60;97.30
17968;DHT22;9109;48.050;11.696;2023-04-09T13:16:28;10.00;96.90
17968;DHT22;9109;48.050;11.696;2023-04-09T13:19:30;10.10;93.60
17968;DHT22;9109;48.050;11.696;2023-04-09T13:22:31;9.80;92.30
17968;DHT22;9109;48.050;11.696;2023-04-09T13:25:33;9.60;92.90
17968;DHT22;9109;48.050;11.696;2023-04-09T13:28:37;9.60;93.60
17968;DHT22;9109;48.050;11.696;2023-04-09T13:31:39;9.50;94.00
17968;DHT22;9109;48.050;11.696;2023-04-09T13:34:41;9.40;93.90
17968;DHT22;9109;48.050;11.696;2023-04-09T13:37:43;9.30;94.40
17968;DHT22;9109;48.050;11.696;2023-04-09T13:40:44;9.30;94.80
17968;DHT22;9109;48.050;11.696;2023-04-09T13:43:48;9.30;94.40
17968;DHT22;9109;48.050;11.696;2023-04-09T13:46:50;9.50;95.10
17968;DHT22;9109;48.050;11.696;2023-04-09T13:49:52;9.70;95.50
17968;DHT22;9109;48.050;11.696;2023-04-09T13:52:54;9.60;94.80
17968;DHT22;9109;48.050;11.696;2023-04-09T13:55:56;9.60;94.30
17968;DHT22;9109;48.050;11.696;2023-04-09T13:59:00;9.70;93.80
17968;DHT22;9109;48.050;11.696;2023-04-09T14:02:02;9.50;93.50
17968;DHT22;9109;48.050;11.696;2023-04-09T14:05:04;9.50;94.40
17968;DHT22;9109;48.050;11.696;2023-04-09T14:08:06;9.90;94.50
17968;DHT22;9109;48.050;11.696;2023-04-09T14:11:08;10.00;94.50
17968;DHT22;9109;48.050;11.696;2023-04-09T14:14:15;10.30;94.30
17968;DHT22;9109;48.050;11.696;2023-04-09T14:17:17;10.40;94.20
17968;DHT22;9109;48.050;11.696;2023-04-09T14:20:19;10.50;93.70
17968;DHT22;9109;48.050;11.696;2023-04-09T14:23:24;9.90;92.20
17968;DHT22;9109;48.050;11.696;2023-04-09T14:26:26;9.90;93.40
17968;DHT22;9109;48.050;11.696;2023-04-09T14:29:30;9.60;91.80
17968;DHT22;9109;48.050;11.696;2023-04-09T14:32:32;9.70;92.50
17968;DHT22;9109;48.050;11.696;2023-04-09T14:35:34;9.90;92.50
17968;DHT22;9109;48.050;11.696;2023-04-09T14:38:36;10.10;92.70
17968;DHT22;9109;48.050;11.696;2023-04-09T14:41:38;10.10;93.40
17968;DHT22;9109;48.050;11.696;2023-04-09T14:44:42;10.20;91.80
17968;DHT22;9109;48.050;11.696;2023-04-09T14:47:44;9.90;92.50
17968;DHT22;9109;48.050;11.696;2023-04-09T14:50:47;9.80;92.00
17968;DHT22;9109;48.050;11.696;2023-04-09T14:53:50;9.70;92.30
17968;DHT22;9109;48.050;11.696;2023-04-09T14:56:52;9.50;93.20
17968;DHT22;9109;48.050;11.696;2023-04-09T14:59:56;9.60;94.00
17968;DHT22;9109;48.050;11.696;2023-04-09T15:02:58;9.50;93.90
17968;DHT22;9109;48.050;11.696;2023-04-09T15:06:00;9.60;94.30
17968;DHT22;9109;48.050;11.696;2023-04-09T15:09:02;9.60;93.50
17968;DHT22;9109;48.050;11.696;2023-04-09T15:12:04;9.70;93.60
17968;DHT22;9109;48.050;11.696;2023-04-09T15:15:08;9.80;93.70
17968;DHT22;9109;48.050;11.696;2023-04-09T15:18:10;9.80;93.00
17968;DHT22;9109;48.050;11.696;2023-04-09T15:21:12;9.80;93.40
17968;DHT22;9109;48.050;11.696;2023-04-09T15:24:14;9.90;92.80
17968;DHT22;9109;48.050;11.696;2023-04-09T15:27:16;9.60;93.50
17968;DHT22;9109;48.050;11.696;2023-04-09T15:30:20;9.40;93.60
17968;DHT22;9109;48.050;11.696;2023-04-09T15:33:22;9.50;94.00
17968;DHT22;9109;48.050;11.696;2023-04-09T15:36:24;9.60;92.30
17968;DHT22;9109;48.050;11.696;2023-04-09T15:39:28;9.60;91.00
17968;DHT22;9109;48.050;11.696;2023-04-09T15:42:32;9.70;91.40
17968;DHT22;9109;48.050;11.696;2023-04-09T15:45:35;9.80;90.80
17968;DHT22;9109;48.050;11.696;2023-04-09T15:48:37;9.80;91.20
17968;DHT22;9109;48.050;11.696;2023-04-09T15:51:39;9.80;90.50
17968;DHT22;9109;48.050;11.696;2023-04-09T15:54:41;9.80;90.60
17968;DHT22;9109;48.050;11.696;2023-04-09T15:57:43;9.90;90.60
17968;DHT22;9109;48.050;11.696;2023-04-09T16:00:47;10.00;90.30
17968;DHT22;9109;48.050;11.696;2023-04-09T16:03:50;10.10;90.90
17968;DHT22;9109;48.050;11.696;2023-04-09T16:06:52;10.20;90.40
17968;DHT22;9109;48.050;11.696;2023-04-09T16:09:56;10.20;90.10
17968;DHT22;9109;48.050;11.696;2023-04-09T16:12:58;10.00;88.00
17968;DHT22;9109;48.050;11.696;2023-04-09T16:16:02;9.90;90.30
17968;DHT22;9109;48.050;11.696;2023-04-09T16:19:04;10.00;90.30
17968;DHT22;9109;48.050;11.696;2023-04-09T16:22:05;10.00;91.40
17968;DHT22;9109;48.050;11.696;2023-04-09T16:25:08;10.00;90.80
17968;DHT22;9109;48.050;11.696;2023-04-09T16:28:10;10.00;88.30
17968;DHT22;9109;48.050;11.696;2023-04-09T16:31:15;9.80;88.90
17968;DHT22;9109;48.050;11.696;2023-04-09T16:34:17;9.90;90.40
17968;DHT22;9109;48.050;11.696;2023-04-09T16:37:19;9.90;90.20
17968;DHT22;9109;48.050;11.696;2023-04-09T16:40:21;10.00;91.20
17968;DHT22;9109;48.050;11.696;2023-04-09T16:43:24;9.90;90.00
17968;DHT22;9109;48.050;11.696;2023-04-09T16:46:27;9.80;89.00
17968;DHT22;9109;48.050;11.696;2023-04-09T16:49:29;9.70;90.00
17968;DHT22;9109;48.050;11.696;2023-04-09T16:52:32;9.60;90.40
17968;DHT22;9109;48.050;11.696;2023-04-09T16:55:35;9.70;90.30
17968;DHT22;9109;48.050;11.696;2023-04-09T16:58:37;9.60;90.30
17968;DHT22;9109;48.050;11.696;2023-04-09T17:01:40;9.40;90.20
17968;DHT22;9109;48.050;11.696;2023-04-09T17:04:42;9.40;90.80
17968;DHT22;9109;48.050;11.696;2023-04-09T17:07:44;9.40;90.80
17968;DHT22;9109;48.050;11.696;2023-04-09T17:10:47;9.10;91.10
17968;DHT22;9109;48.050;11.696;2023-04-09T17:13:48;9.10;91.90
17968;DHT22;9109;48.050;11.696;2023-04-09T17:16:52;9.10;91.40
17968;DHT22;9109;48.050;11.696;2023-04-09T17:19:53;8.90;91.80
17968;DHT22;9109;48.050;11.696;2023-04-09T17:22:57;8.80;92.00
17968;DHT22;9109;48.050;11.696;2023-04-09T17:26:00;8.70;92.40
17968;DHT22;9109;48.050;11.696;2023-04-09T17:29:02;8.70;92.80
17968;DHT22;9109;48.050;11.696;2023-04-09T17:32:05;8.80;93.20
17968;DHT22;9109;48.050;11.696;2023-04-09T17:35:08;8.80;93.70
17968;DHT22;9109;48.050;11.696;2023-04-09T17:38:11;8.90;93.70
17968;DHT22;9109;48.050;11.696;2023-04-09T17:41:16;8.90;93.50
17968;DHT22;9109;48.050;11.696;2023-04-09T17:44:18;8.80;93.60
17968;DHT22;9109;48.050;11.696;2023-04-09T17:47:22;8.80;93.70
17968;DHT22;9109;48.050;11.696;2023-04-09T17:50:24;8.70;93.90
17968;DHT22;9109;48.050;11.696;2023-04-09T17:53:29;8.70;94.00
17968;DHT22;9109;48.050;11.696;2023-04-09T17:56:31;8.70;94.20
17968;DHT22;9109;48.050;11.696;2023-04-09T17:59:35;8.60;94.30
17968;DHT22;9109;48.050;11.696;2023-04-09T18:02:39;8.60;94.50
17968;DHT22;9109;48.050;11.696;2023-04-09T18:05:42;8.60;94.50
17968;DHT22;9109;48.050;11.696;2023-04-09T18:08:44;8.60;94.60
17968;DHT22;9109;48.050;11.696;2023-04-09T18:11:46;8.50;94.60
17968;DHT22;9109;48.050;11.696;2023-04-09T18:14:48;8.40;94.60
17968;DHT22;9109;48.050;11.696;2023-04-09T18:17:51;8.40;95.10
17968;DHT22;9109;48.050;11.696;2023-04-09T18:20:53;8.30;95.20
17968;DHT22;9109;48.050;11.696;2023-04-09T18:23:55;8.20;95.60
17968;DHT22;9109;48.050;11.696;2023-04-09T18:26:57;8.20;95.50
17968;DHT22;9109;48.050;11.696;2023-04-09T18:30:02;8.10;95.80
17968;DHT22;9109;48.050;11.696;2023-04-09T18:33:05;8.10;96.00
17968;DHT22;9109;48.050;11.696;2023-04-09T18:36:07;8.00;96.10
17968;DHT22;9109;48.050;11.696;2023-04-09T18:39:09;7.80;96.40
17968;DHT22;9109;48.050;11.696;2023-04-09T18:42:12;7.70;96.60
17968;DHT22;9109;48.050;11.696;2023-04-09T18:45:13;7.60;97.10
17968;DHT22;9109;48.050;11.696;2023-04-09T18:48:17;7.50;97.30
17968;DHT22;9109;48.050;11.696;2023-04-09T18:51:19;7.40;97.50
17968;DHT22;9109;48.050;11.696;2023-04-09T18:54:21;7.30;97.80
17968;DHT22;9109;48.050;11.696;2023-04-09T18:57:24;7.20;98.10
17968;DHT22;9109;48.050;11.696;2023-04-09T19:00:26;7.10;98.30
17968;DHT22;9109;48.050;11.696;2023-04-09T19:03:30;7.10;98.80
17968;DHT22;9109;48.050;11.696;2023-04-09T19:06:32;7.00;99.00
17968;DHT22;9109;48.050;11.696;2023-04-09T19:09:35;6.90;99.40
17968;DHT22;9109;48.050;11.696;2023-04-09T19:12:38;6.80;99.90
17968;DHT22;9109;48.050;11.696;2023-04-09T19:15:46;6.80;99.90
17968;DHT22;9109;48.050;11.696;2023-04-09T19:18:49;6.80;99.90
17968;DHT22;9109;48.050;11.696;2023-04-09T19:21:51;6.70;99.90
17968;DHT22;9109;48.050;11.696;2023-04-09T19:24:53;6.70;99.90
17968;DHT22;9109;48.050;11.696;2023-04-09T19:27:55;6.70;99.90
17968;DHT22;9109;48.050;11.696;2023-04-09T19:30:57;6.70;99.90
17968;DHT22;9109;48.050;11.696;2023-04-09T19:34:00;6.60;99.90
17968;DHT22;9109;48.050;11.696;2023-04-09T19:37:02;6.50;99.90
17968;DHT22;9109;48.050;11.696;2023-04-09T19:40:05;6.40;99.90
17968;DHT22;9109;48.050;11.696;2023-04-09T19:43:07;6.30;99.90
17968;DHT22;9109;48.050;11.696;2023-04-09T19:46:09;6.40;99.90
17968;DHT22;9109;48.050;11.696;2023-04-09T19:49:16;6.30;99.90
17968;DHT22;9109;48.050;11.696;2023-04-09T19:52:18;6.30;99.90
17968;DHT22;9109;48.050;11.696;2023-04-09T19:55:20;6.30;99.90
17968;DHT22;9109;48.050;11.696;2023-04-09T19:58:22;6.20;99.90
17968;DHT22;9109;48.050;11.696;2023-04-09T20:01:24;6.10;99.90
17968;DHT22;9109;48.050;11.696;2023-04-09T20:04:28;6.10;99.90
17968;DHT22;9109;48.050;11.696;2023-04-09T20:07:31;6.00;99.90
17968;DHT22;9109;48.050;11.696;2023-04-09T20:10:36;5.90;99.90
17968;DHT22;9109;48.050;11.696;2023-04-09T20:13:42;5.90;99.90
17968;DHT22;9109;48.050;11.696;2023-04-09T20:16:44;5.90;99.90
17968;DHT22;9109;48.050;11.696;2023-04-09T20:19:47;5.80;99.90
17968;DHT22;9109;48.050;11.696;2023-04-09T20:22:49;5.70;99.90
17968;DHT22;9109;48.050;11.696;2023-04-09T20:25:53;5.60;99.90
17968;DHT22;9109;48.050;11.696;2023-04-09T20:28:55;5.70;99.90
17968;DHT22;9109;48.050;11.696;2023-04-09T20:31:57;5.70;99.90
17968;DHT22;9109;48.050;11.696;2023-04-09T20:35:00;5.70;99.90
17968;DHT22;9109;48.050;11.696;2023-04-09T20:38:02;5.70;99.90
17968;DHT22;9109;48.050;11.696;2023-04-09T20:41:04;5.70;99.90
17968;DHT22;9109;48.050;11.696;2023-04-09T20:44:06;5.70;99.90
17968;DHT22;9109;48.050;11.696;2023-04-09T20:47:09;5.70;99.90
17968;DHT22;9109;48.050;11.696;2023-04-09T20:50:13;5.70;99.90
17968;DHT22;9109;48.050;11.696;2023-04-09T20:53:15;5.60;99.90
17968;DHT22;9109;48.050;11.696;2023-04-09T20:56:17;5.60;99.90
17968;DHT22;9109;48.050;11.696;2023-04-09T20:59:19;5.60;99.90
17968;DHT22;9109;48.050;11.696;2023-04-09T21:02:21;5.60;99.90
17968;DHT22;9109;48.050;11.696;2023-04-09T21:05:24;5.50;99.90
17968;DHT22;9109;48.050;11.696;2023-04-09T21:08:26;5.50;99.90
17968;DHT22;9109;48.050;11.696;2023-04-09T21:11:28;5.40;99.90
17968;DHT22;9109;48.050;11.696;2023-04-09T21:14:30;5.30;99.90
17968;DHT22;9109;48.050;11.696;2023-04-09T21:17:32;5.30;99.90
17968;DHT22;9109;48.050;11.696;2023-04-09T21:20:35;5.20;99.90
17968;DHT22;9109;48.050;11.696;2023-04-09T21:23:37;5.10;99.90
17968;DHT22;9109;48.050;11.696;2023-04-09T21:26:41;5.00;99.90
17968;DHT22;9109;48.050;11.696;2023-04-09T21:29:43;4.80;99.90
17968;DHT22;9109;48.050;11.696;2023-04-09T21:32:44;4.40;99.90
17968;DHT22;9109;48.050;11.696;2023-04-09T21:35:50;4.50;99.90
17968;DHT22;9109;48.050;11.696;2023-04-09T21:38:52;4.80;99.90
17968;DHT22;9109;48.050;11.696;2023-04-09T21:41:54;5.00;99.90
17968;DHT22;9109;48.050;11.696;2023-04-09T21:44:56;5.10;99.90
17968;DHT22;9109;48.050;11.696;2023-04-09T21:47:58;5.20;99.90
17968;DHT22;9109;48.050;11.696;2023-04-09T21:51:02;5.30;99.90
17968;DHT22;9109;48.050;11.696;2023-04-09T21:54:07;5.30;99.90
17968;DHT22;9109;48.050;11.696;2023-04-09T21:57:09;5.30;99.90
17968;DHT22;9109;48.050;11.696;2023-04-09T22:00:12;5.40;99.90
17968;DHT22;9109;48.050;11.696;2023-04-09T22:03:15;5.40;99.90
17968;DHT22;9109;48.050;11.696;2023-04-09T22:06:19;5.40;99.90
17968;DHT22;9109;48.050;11.696;2023-04-09T22:09:21;5.40;99.90
17968;DHT22;9109;48.050;11.696;2023-04-09T22:12:23;5.40;99.90
17968;DHT22;9109;48.050;11.696;2023-04-09T22:15:25;5.40;99.90
17968;DHT22;9109;48.050;11.696;2023-04-09T22:18:27;5.30;99.90
17968;DHT22;9109;48.050;11.696;2023-04-09T22:21:30;5.20;99.90
17968;DHT22;9109;48.050;11.696;2023-04-09T22:24:33;5.30;99.90
17968;DHT22;9109;48.050;11.696;2023-04-09T22:27:34;5.30;99.90
17968;DHT22;9109;48.050;11.696;2023-04-09T22:30:36;5.10;99.90
17968;DHT22;9109;48.050;11.696;2023-04-09T22:33:39;5.00;99.90
17968;DHT22;9109;48.050;11.696;2023-04-09T22:36:42;5.00;99.90
17968;DHT22;9109;48.050;11.696;2023-04-09T22:39:44;5.00;99.90
17968;DHT22;9109;48.050;11.696;2023-04-09T22:42:46;4.80;99.90
17968;DHT22;9109;48.050;11.696;2023-04-09T22:45:49;4.70;99.90
17968;DHT22;9109;48.050;11.696;2023-04-09T22:48:51;4.80;99.90
17968;DHT22;9109;48.050;11.696;2023-04-09T22:51:55;4.90;99.90
17968;DHT22;9109;48.050;11.696;2023-04-09T22:54:57;5.00;99.90
17968;DHT22;9109;48.050;11.696;2023-04-09T22:57:58;5.00;99.90
